奄美空港の過去48時間の天気

奄美空港 (Amami)

現在時刻: 5/27 09:16 JST (5/27 00:16 UTC) 以下の時間は現地時間です。

過去48時間のMETAR気象情報
時間 風向 風速(m/s) 視程 気温(℃) 湿度(%) 気圧(hPa) 天気現象
27 08:00 不定 1 10km以上 21 88 1005
27 07:00 不定 1 10km以上 20 88 1005
27 06:00 西南西 2 10km以上 20 94 1005
27 05:00 西 3 10km以上 20 94 1004
27 04:00 西 2 7000m 20 94 1004
27 03:00 西 2 10km以上 20 94 1004 弱い雨
27 02:00 西北西 2 10km以上 20 94 1003 弱い雨
27 01:00 2 9000m 19 94 1004
27 00:00 4 10km以上 20 94 1005
26 23:00 北北西 2 10km以上 22 94 1005
26 22:00 3 9000m 22 94 1005 弱い雨
26 21:00 北北西 3 10km以上 23 89 1005 弱い雨
26 20:00 北北西 2 10km以上 23 89 1005
26 19:00 西 2 10km以上 24 83 1004
26 18:00 西北西 3 10km以上 24 83 1004
26 17:00 北西 5 10km以上 25 78 1004
26 16:00 西北西 5 10km以上 27 70 1004
26 15:00 不定 1 10km以上 26 74 1004
26 14:00 北西 3 10km以上 26 74 1004
26 13:00 南南西 5 10km以上 27 84 1005
26 12:00 南南西 5 10km以上 27 84 1005
26 11:00 南南西 4 10km以上 26 79 1006
26 10:00 南南西 3 10km以上 26 79 1006
26 09:00 南南西 4 10km以上 26 79 1006
26 08:00 2 10km以上 24 89 1006
26 07:00 南南西 1 10km以上 23 100 1006
26 06:00 北北西 1 10km以上 21 100 1006
26 05:00 西 1 10km以上 21 94 1006
26 04:00 西南西 1 10km以上 21 100 1006
26 03:00 不定 1 10km以上 22 94 1006
26 02:00 不定 1 10km以上 23 94 1006
26 01:00 3 10km以上 24 94 1006
26 00:00 南南東 2 10km以上 23 100 1007
25 23:00 南東 3 10km以上 24 89 1007
25 22:00 南東 3 10km以上 23 94 1008
25 21:00 東南東 3 10km以上 23 94 1007
25 20:00 南東 4 10km以上 23 94 1007
25 19:00 南東 5 10km以上 24 89 1007
25 18:00 東南東 6 10km以上 24 89 1006
25 17:00 東南東 5 10km以上 24 89 1006
25 16:00 6 10km以上 24 89 1006
25 15:16 6 10km以上 24 89 1006
25 15:00 7 10km以上 25 83 1006 弱いしゅう雨
25 14:00 7 10km以上 24 94 1007
25 13:45 8 10km以上 24 89 1007
25 13:12 8 10km以上 24 89 1007
25 13:00 7 10km以上 24 89 1007
25 12:00 8 10km以上 24 89 1007
25 11:19 8 10km以上 24 89 1008
25 11:00 7 10km以上 24 89 1008
25 10:00 7 10km以上 24 94 1008
25 09:17 7 5000m 23 100 1008 弱いしゅう雨
RJKA 262300Z VRB01KT 9999 FEW015 BKN070 BKN080 21/19 Q1005
RJKA 262200Z AUTO VRB02KT 9999 NSC 20/18 Q1005
RJKA 262100Z AUTO 24004KT 9999 NSC 20/19 Q1005
RJKA 262000Z AUTO 28006KT 9999 FEW035 BKN038 BKN040 20/19 Q1004
RJKA 261900Z AUTO 28003KT 240V320 7000 FEW019 SCT030 BKN045 //////TCU 20/19 Q1004
RJKA 261800Z AUTO 27003KT 240V310 9999 -RA NSC 20/19 Q1004
RJKA 261700Z AUTO 29003KT 260V340 9999 -RA NSC 20/19 Q1003
RJKA 261600Z AUTO 36004KT 290V030 9000 FEW023 SCT036 BKN043 19/18 Q1004
RJKA 261500Z AUTO 35008KT 9999 FEW017 OVC050 20/19 Q1005
RJKA 261400Z AUTO 33004KT 300V010 9999 FEW011 SCT042 BKN060 22/21 Q1005
RJKA 261300Z AUTO 35006KT 300V020 9000 -RA FEW012 SCT040 BKN080 22/21 Q1005
RJKA 261200Z AUTO 33006KT 300V360 9999 -RA FEW016 BKN080 OVC100 23/21 Q1005
RJKA 261100Z AUTO 33004KT 290V010 9999 FEW040 OVC080 23/21 Q1005
RJKA 261000Z 28003KT 250V320 9999 FEW020 SCT070 BKN090 24/21 Q1004
RJKA 260900Z 29005KT 250V340 9999 FEW020 SCT090 BKN110 24/21 Q1004
RJKA 260800Z 31009KT 270V330 9999 FEW020 BKN120 BKN150 25/21 Q1004
RJKA 260700Z 30009KT 270V340 9999 FEW020 SCT025 BKN045 27/21 Q1004
RJKA 260600Z VRB02KT 9999 FEW015 SCT025 BKN045 26/21 Q1004
RJKA 260500Z 32006KT 270V360 9999 FEW015 SCT020 BKN045 26/21 Q1004
RJKA 260400Z 20009KT 9999 FEW015 SCT025 BKN050 27/24 Q1005
RJKA 260300Z 20009KT 9999 FEW030 SCT040 BKN050 27/24 Q1005
RJKA 260200Z 21008KT 190V250 9999 FEW025 SCT040 BKN/// 26/22 Q1006
RJKA 260100Z 20006KT 9999 FEW015 BKN/// 26/22 Q1006
RJKA 260000Z 20007KT 9999 FEW015 BKN/// 26/22 Q1006
RJKA 252300Z 19004KT 9999 FEW010 BKN/// 24/22 Q1006
RJKA 252200Z AUTO 21002KT 9999 NCD 23/23 Q1006
RJKA 252100Z AUTO 33002KT 9999 NCD 21/21 Q1006
RJKA 252000Z AUTO 28001KT 9999 NCD 21/20 Q1006
RJKA 251900Z AUTO 25001KT 9999 FEW009 21/21 Q1006
RJKA 251800Z AUTO VRB02KT 9999 FEW007 22/21 Q1006
RJKA 251700Z AUTO VRB02KT 9999 SCT006 SCT009 BKN019 23/22 Q1006
RJKA 251600Z AUTO 17005KT 9999 BKN007 OVC036 24/23 Q1006
RJKA 251500Z AUTO 15004KT 9999 SCT011 BKN017 OVC038 23/23 Q1007
RJKA 251400Z AUTO 14006KT 9999 FEW007 BKN015 BKN023 24/22 Q1007
RJKA 251300Z AUTO 14006KT 9999 BKN017 OVC021 23/22 Q1008
RJKA 251200Z AUTO 12005KT 9999 FEW008 BKN019 OVC042 23/22 Q1007
RJKA 251100Z AUTO 13008KT 9999 BKN023 OVC040 23/22 Q1007
RJKA 251000Z 13009KT 9999 FEW010 SCT012 BKN020 24/22 Q1007
RJKA 250900Z 12011KT 9999 FEW008 SCT010 BKN018 24/22 Q1006
RJKA 250800Z 11010KT 9999 FEW008 SCT010 BKN018 24/22 Q1006
RJKA 250700Z 10011KT 9999 FEW008 SCT012 BKN020 24/22 Q1006
RJKA 250616Z 10012KT 9999 FEW008 SCT010 BKN015 24/22 Q1006 RMK 1CU008 3CU010 6CU015 A2973
RJKA 250600Z 09013KT 9999 -SHRA FEW007 BKN009 BKN015 25/22 Q1006
RJKA 250500Z 10014KT 9999 FEW007 BKN008 BKN020 24/23 Q1007
RJKA 250445Z 09015KT 9999 FEW007 BKN009 BKN015 24/22 Q1007 RMK 1CU007 5CU009 6CU015 A2974
RJKA 250412Z 09015KT 9999 FEW008 BKN010 BKN015 24/22 Q1007 RMK 1CU008 5CU010 7CU015 A2975
RJKA 250400Z 09013KT 9999 FEW007 BKN009 BKN015 24/22 Q1007
RJKA 250300Z 09015KT 9999 FEW007 BKN009 BKN015 24/22 Q1007
RJKA 250219Z 09015KT 9999 FEW007 BKN009 BKN015 24/22 Q1008 RMK 1CU007 5CU009 7CU015 A2977
RJKA 250200Z 09014KT 9999 FEW007 SCT010 BKN015 24/22 Q1008
RJKA 250100Z 08014KT 9999 FEW006 BKN010 BKN015 24/23 Q1008
RJKA 250017Z 09013KT 5000 -SHRA FEW004 BKN008 BKN010 23/23 Q1008 RMK 1ST004 5CU008 7CU010 A2978